createdAt,value
2019-05-18T00:20:05.129Z,10.49
2019-05-18T00:40:16.889Z,9.46
2019-05-18T01:00:16.325Z,12.10
2019-05-18T01:20:25.762Z,13.22
2019-05-18T01:40:35.299Z,12.36
2019-05-18T02:00:44.840Z,9.97
2019-05-18T02:20:54.291Z,13.34
2019-05-18T02:41:03.784Z,13.12
2019-05-18T03:01:13.222Z,9.83
2019-05-18T03:21:22.692Z,10.70
2019-05-18T03:41:32.154Z,10.16
2019-05-18T04:01:41.604Z,10.35
2019-05-18T04:21:51.057Z,10.91
2019-05-18T04:42:00.796Z,10.13
2019-05-18T05:02:10.358Z,9.74
2019-05-18T05:22:19.898Z,9.98
2019-05-18T05:42:29.364Z,9.75
2019-05-18T06:02:38.753Z,9.24
2019-05-18T06:22:48.472Z,9.53
2019-05-18T06:42:57.986Z,7.87
2019-05-18T07:03:07.420Z,9.25
2019-05-18T07:23:17.272Z,6.93
2019-05-18T07:43:27.080Z,6.72
2019-05-18T08:03:38.864Z,6.62
2019-05-18T08:23:38.496Z,7.12
2019-05-18T08:43:50.386Z,7.41
2019-05-18T09:03:50.028Z,6.60
2019-05-18T09:24:01.798Z,5.93
2019-05-18T09:44:01.410Z,5.44
2019-05-18T10:04:10.832Z,5.68
2019-05-18T10:24:20.532Z,3.87
2019-05-18T10:44:30.199Z,5.15
2019-05-18T11:04:39.643Z,3.35
2019-05-18T11:24:49.189Z,5.14
2019-05-18T11:44:58.779Z,3.09
2019-05-18T12:05:14.773Z,5.11
2019-05-18T12:25:18.592Z,12.76
2019-05-18T12:45:18.174Z,6.54
2019-05-18T13:05:27.898Z,7.09
2019-05-18T13:25:37.393Z,4.65
2019-05-18T13:45:46.925Z,8.47
2019-05-18T14:05:56.779Z,4.18
2019-05-18T14:26:06.204Z,4.74
2019-05-18T14:46:15.800Z,5.70
2019-05-18T15:06:27.511Z,3.60
2019-05-18T15:26:27.369Z,3.74
2019-05-18T15:46:36.825Z,6.82
2019-05-18T16:06:46.345Z,8.63
2019-05-18T16:26:56.186Z,6.07
2019-05-18T16:47:05.653Z,7.41
2019-05-18T17:07:17.565Z,7.28
2019-05-18T17:27:16.981Z,9.08
2019-05-18T17:47:29.474Z,11.51
2019-05-18T18:07:35.851Z,8.30
2019-05-18T18:27:50.807Z,6.97
2019-05-18T18:47:54.864Z,8.39
2019-05-18T19:08:04.548Z,6.22
2019-05-18T19:28:13.996Z,8.29
2019-05-18T19:48:25.932Z,7.77
2019-05-18T20:08:25.424Z,7.62
2019-05-18T20:28:37.266Z,8.04
2019-05-18T20:48:36.706Z,7.96
2019-05-18T21:08:44.697Z,8.74
2019-05-18T21:28:59.308Z,6.25
2019-05-18T21:49:03.880Z,6.28
2019-05-18T22:09:03.295Z,8.07
2019-05-18T22:29:17.302Z,8.20
2019-05-18T22:49:16.725Z,7.82
2019-05-18T23:09:26.408Z,7.07
2019-05-18T23:29:35.837Z,8.11
2019-05-18T23:49:45.279Z,8.35
